sensor_id;sensor_type;location;lat;lon;timestamp;pressure;altitude;pressure_sealevel;temperature;humidity
38786;BME280;24535;45.508;12.252;2023-03-12T00:02:12;100687.03;;;13.64;50.13
38786;BME280;24535;45.508;12.252;2023-03-12T00:04:37;100691.47;;;13.64;49.76
38786;BME280;24535;45.508;12.252;2023-03-12T00:07:03;100698.22;;;13.68;50.06
38786;BME280;24535;45.508;12.252;2023-03-12T00:09:33;100695.44;;;13.69;50.19
38786;BME280;24535;45.508;12.252;2023-03-12T00:11:59;100700.63;;;13.71;49.79
38786;BME280;24535;45.508;12.252;2023-03-12T00:14:25;100697.97;;;13.71;49.69
38786;BME280;24535;45.508;12.252;2023-03-12T00:16:51;100698.94;;;13.70;49.88
38786;BME280;24535;45.508;12.252;2023-03-12T00:19:29;100704.25;;;13.70;49.80
38786;BME280;24535;45.508;12.252;2023-03-12T00:21:55;100701.69;;;13.68;49.36
38786;BME280;24535;45.508;12.252;2023-03-12T00:24:20;100706.28;;;13.66;49.91
38786;BME280;24535;45.508;12.252;2023-03-12T00:26:46;100707.97;;;13.67;49.57
38786;BME280;24535;45.508;12.252;2023-03-12T00:29:11;100712.41;;;13.67;49.50
38786;BME280;24535;45.508;12.252;2023-03-12T00:31:37;100710.16;;;13.62;49.14
38786;BME280;24535;45.508;12.252;2023-03-12T00:34:03;100716.28;;;13.63;49.29
38786;BME280;24535;45.508;12.252;2023-03-12T00:36:31;100718.47;;;13.57;49.99
38786;BME280;24535;45.508;12.252;2023-03-12T00:38:58;100719.53;;;13.55;49.88
38786;BME280;24535;45.508;12.252;2023-03-12T00:41:24;100724.09;;;13.53;49.65
38786;BME280;24535;45.508;12.252;2023-03-12T00:43:50;100732.28;;;13.50;49.33
38786;BME280;24535;45.508;12.252;2023-03-12T00:46:16;100738.53;;;13.49;49.85
38786;BME280;24535;45.508;12.252;2023-03-12T00:48:43;100742.97;;;13.48;49.44
38786;BME280;24535;45.508;12.252;2023-03-12T00:51:08;100746.59;;;13.47;49.08
38786;BME280;24535;45.508;12.252;2023-03-12T00:53:34;100752.13;;;13.44;49.48
38786;BME280;24535;45.508;12.252;2023-03-12T00:56:00;100752.41;;;13.41;49.42
38786;BME280;24535;45.508;12.252;2023-03-12T00:58:26;100743.59;;;13.41;49.68
38786;BME280;24535;45.508;12.252;2023-03-12T01:00:52;100751.53;;;13.41;49.43
38786;BME280;24535;45.508;12.252;2023-03-12T01:03:18;100753.34;;;13.40;49.43
38786;BME280;24535;45.508;12.252;2023-03-12T01:05:43;100750.09;;;13.36;50.67
38786;BME280;24535;45.508;12.252;2023-03-12T01:08:09;100743.84;;;13.38;50.03
38786;BME280;24535;45.508;12.252;2023-03-12T01:10:36;100752.63;;;13.38;50.09
38786;BME280;24535;45.508;12.252;2023-03-12T01:13:02;100761.53;;;13.37;50.03
38786;BME280;24535;45.508;12.252;2023-03-12T01:15:28;100760.78;;;13.35;49.86
38786;BME280;24535;45.508;12.252;2023-03-12T01:17:53;100759.13;;;13.34;50.60
38786;BME280;24535;45.508;12.252;2023-03-12T01:20:19;100754.06;;;13.31;50.32
38786;BME280;24535;45.508;12.252;2023-03-12T01:22:45;100757.69;;;13.30;50.36
38786;BME280;24535;45.508;12.252;2023-03-12T01:25:11;100757.69;;;13.30;50.94
38786;BME280;24535;45.508;12.252;2023-03-12T01:27:36;100759.47;;;13.29;50.12
38786;BME280;24535;45.508;12.252;2023-03-12T01:30:03;100764.66;;;13.31;50.69
38786;BME280;24535;45.508;12.252;2023-03-12T01:32:29;100759.34;;;13.31;50.77
38786;BME280;24535;45.508;12.252;2023-03-12T01:34:56;100766.31;;;13.32;50.48
38786;BME280;24535;45.508;12.252;2023-03-12T01:37:22;100771.75;;;13.30;50.12
38786;BME280;24535;45.508;12.252;2023-03-12T01:39:47;100780.53;;;13.31;50.53
38786;BME280;24535;45.508;12.252;2023-03-12T01:42:13;100783.78;;;13.34;50.79
38786;BME280;24535;45.508;12.252;2023-03-12T01:44:56;100785.44;;;13.35;50.07
38786;BME280;24535;45.508;12.252;2023-03-12T01:47:22;100787.25;;;13.35;50.11
38786;BME280;24535;45.508;12.252;2023-03-12T01:49:50;100788.94;;;13.36;50.54
38786;BME280;24535;45.508;12.252;2023-03-12T01:52:37;100797.72;;;13.36;50.22
38786;BME280;24535;45.508;12.252;2023-03-12T01:57:38;100796.78;;;13.38;50.58
38786;BME280;24535;45.508;12.252;2023-03-12T02:00:25;100802.78;;;13.40;50.89
38786;BME280;24535;45.508;12.252;2023-03-12T02:02:53;100805.56;;;13.38;51.02
38786;BME280;24535;45.508;12.252;2023-03-12T02:07:52;100820.59;;;13.38;50.73
38786;BME280;24535;45.508;12.252;2023-03-12T02:10:18;100822.25;;;13.39;51.25
38786;BME280;24535;45.508;12.252;2023-03-12T02:12:43;100818.66;;;13.40;51.32
38786;BME280;24535;45.508;12.252;2023-03-12T02:15:09;100815.41;;;13.36;51.24
38786;BME280;24535;45.508;12.252;2023-03-12T02:17:36;100808.44;;;13.35;50.68
38786;BME280;24535;45.508;12.252;2023-03-12T02:20:14;100809.38;;;13.34;51.22
38786;BME280;24535;45.508;12.252;2023-03-12T02:22:47;100820.94;;;13.33;51.41
38786;BME280;24535;45.508;12.252;2023-03-12T02:25:38;100834.28;;;13.31;51.72
38786;BME280;24535;45.508;12.252;2023-03-12T02:28:08;100846.66;;;13.31;51.46
38786;BME280;24535;45.508;12.252;2023-03-12T02:30:34;100847.63;;;13.30;51.45
38786;BME280;24535;45.508;12.252;2023-03-12T02:33:04;100849.53;;;13.28;51.24
38786;BME280;24535;45.508;12.252;2023-03-12T02:35:30;100856.53;;;13.29;50.82
38786;BME280;24535;45.508;12.252;2023-03-12T02:37:56;100856.75;;;13.26;51.10
38786;BME280;24535;45.508;12.252;2023-03-12T02:40:26;100860.25;;;13.26;51.20
38786;BME280;24535;45.508;12.252;2023-03-12T02:42:54;100861.22;;;13.25;50.24
38786;BME280;24535;45.508;12.252;2023-03-12T02:45:20;100868.41;;;13.23;50.89
38786;BME280;24535;45.508;12.252;2023-03-12T02:47:46;100871.16;;;13.22;50.38
38786;BME280;24535;45.508;12.252;2023-03-12T02:50:12;100867.88;;;13.18;50.08
38786;BME280;24535;45.508;12.252;2023-03-12T02:52:37;100869.56;;;13.19;49.97
38786;BME280;24535;45.508;12.252;2023-03-12T02:55:05;100877.84;;;13.15;49.76
38786;BME280;24535;45.508;12.252;2023-03-12T02:57:30;100885.06;;;13.13;49.30
38786;BME280;24535;45.508;12.252;2023-03-12T03:00:04;100886.28;;;13.08;50.04
38786;BME280;24535;45.508;12.252;2023-03-12T03:05:03;100896.69;;;12.99;50.02
38786;BME280;24535;45.508;12.252;2023-03-12T03:07:36;100903.91;;;12.97;49.20
38786;BME280;24535;45.508;12.252;2023-03-12T03:10:04;100902.44;;;12.93;49.98
38786;BME280;24535;45.508;12.252;2023-03-12T03:12:31;100903.72;;;12.87;49.13
38786;BME280;24535;45.508;12.252;2023-03-12T03:14:57;100917.91;;;12.86;48.96
38786;BME280;24535;45.508;12.252;2023-03-12T03:17:23;100932.91;;;12.85;48.67
38786;BME280;24535;45.508;12.252;2023-03-12T03:19:52;100924.38;;;12.82;49.08
38786;BME280;24535;45.508;12.252;2023-03-12T03:22:18;100934.19;;;12.80;48.87
38786;BME280;24535;45.508;12.252;2023-03-12T03:24:44;100940.56;;;12.77;48.98
38786;BME280;24535;45.508;12.252;2023-03-12T03:27:13;100939.94;;;12.74;48.16
38786;BME280;24535;45.508;12.252;2023-03-12T03:30:00;100946.28;;;12.71;48.52
38786;BME280;24535;45.508;12.252;2023-03-12T03:32:25;100939.44;;;12.69;48.55
38786;BME280;24535;45.508;12.252;2023-03-12T03:34:50;100937.97;;;12.65;47.80
38786;BME280;24535;45.508;12.252;2023-03-12T03:37:16;100946.84;;;12.63;47.83
38786;BME280;24535;45.508;12.252;2023-03-12T03:39:41;100953.91;;;12.63;48.33
38786;BME280;24535;45.508;12.252;2023-03-12T03:42:09;100961.97;;;12.61;48.26
38786;BME280;24535;45.508;12.252;2023-03-12T03:44:35;100956.81;;;12.60;47.78
38786;BME280;24535;45.508;12.252;2023-03-12T03:47:03;100962.19;;;12.58;46.83
38786;BME280;24535;45.508;12.252;2023-03-12T03:49:38;100971.78;;;12.59;46.87
38786;BME280;24535;45.508;12.252;2023-03-12T03:52:15;100977.41;;;12.55;47.18
38786;BME280;24535;45.508;12.252;2023-03-12T03:54:44;100970.44;;;12.54;47.54
38786;BME280;24535;45.508;12.252;2023-03-12T03:57:19;100979.44;;;12.51;46.57
38786;BME280;24535;45.508;12.252;2023-03-12T03:59:44;100976.19;;;12.48;46.56
38786;BME280;24535;45.508;12.252;2023-03-12T04:02:30;100980.59;;;12.47;46.83
38786;BME280;24535;45.508;12.252;2023-03-12T04:05:01;100987.81;;;12.45;47.06
38786;BME280;24535;45.508;12.252;2023-03-12T04:07:27;100998.38;;;12.45;46.79
38786;BME280;24535;45.508;12.252;2023-03-12T04:09:54;101004.72;;;12.43;46.23
38786;BME280;24535;45.508;12.252;2023-03-12T04:12:21;101005.53;;;12.43;46.93
38786;BME280;24535;45.508;12.252;2023-03-12T04:14:50;101003.88;;;12.42;46.27
38786;BME280;24535;45.508;12.252;2023-03-12T04:17:16;101016.03;;;12.45;47.20
38786;BME280;24535;45.508;12.252;2023-03-12T04:19:44;101012.53;;;12.44;47.12
38786;BME280;24535;45.508;12.252;2023-03-12T04:22:12;101017.06;;;12.42;46.31
38786;BME280;24535;45.508;12.252;2023-03-12T04:24:38;101023.84;;;12.46;46.69
38786;BME280;24535;45.508;12.252;2023-03-12T04:27:09;101019.38;;;12.47;46.75
38786;BME280;24535;45.508;12.252;2023-03-12T04:29:34;101029.88;;;12.48;46.54
38786;BME280;24535;45.508;12.252;2023-03-12T04:32:00;101029.75;;;12.50;46.84
38786;BME280;24535;45.508;12.252;2023-03-12T04:34:25;101038.72;;;12.47;46.65
38786;BME280;24535;45.508;12.252;2023-03-12T04:36:51;101032.50;;;12.48;47.46
38786;BME280;24535;45.508;12.252;2023-03-12T04:39:18;101051.31;;;12.56;47.55
38786;BME280;24535;45.508;12.252;2023-03-12T04:45:06;101052.47;;;12.65;47.14
38786;BME280;24535;45.508;12.252;2023-03-12T04:47:34;101062.19;;;12.65;47.39
38786;BME280;24535;45.508;12.252;2023-03-12T04:50:02;101063.88;;;12.66;47.31
38786;BME280;24535;45.508;12.252;2023-03-12T04:52:31;101069.88;;;12.68;46.36
38786;BME280;24535;45.508;12.252;2023-03-12T04:54:56;101072.53;;;12.68;46.84
38786;BME280;24535;45.508;12.252;2023-03-12T04:57:23;101076.66;;;12.72;46.89
38786;BME280;24535;45.508;12.252;2023-03-12T05:02:40;101077.41;;;12.74;47.19
38786;BME280;24535;45.508;12.252;2023-03-12T05:05:10;101093.38;;;12.72;46.48
38786;BME280;24535;45.508;12.252;2023-03-12T05:07:35;101093.47;;;12.71;46.49
38786;BME280;24535;45.508;12.252;2023-03-12T05:10:01;101098.97;;;12.68;46.62
38786;BME280;24535;45.508;12.252;2023-03-12T05:12:26;101102.03;;;12.74;47.42
38786;BME280;24535;45.508;12.252;2023-03-12T05:14:52;101103.72;;;12.75;47.09
38786;BME280;24535;45.508;12.252;2023-03-12T05:17:17;101102.66;;;12.78;48.15
38786;BME280;24535;45.508;12.252;2023-03-12T05:19:43;101115.69;;;12.81;47.04
38786;BME280;24535;45.508;12.252;2023-03-12T05:22:08;101118.09;;;12.84;46.68
38786;BME280;24535;45.508;12.252;2023-03-12T05:24:34;101119.88;;;12.83;46.57
38786;BME280;24535;45.508;12.252;2023-03-12T05:27:05;101128.78;;;12.82;46.50
38786;BME280;24535;45.508;12.252;2023-03-12T05:29:33;101126.47;;;12.78;46.07
38786;BME280;24535;45.508;12.252;2023-03-12T05:32:03;101126.34;;;12.79;46.23
38786;BME280;24535;45.508;12.252;2023-03-12T05:34:29;101139.47;;;12.81;46.13
38786;BME280;24535;45.508;12.252;2023-03-12T05:36:56;101147.63;;;12.78;46.72
38786;BME280;24535;45.508;12.252;2023-03-12T05:39:22;101144.13;;;12.77;46.45
38786;BME280;24535;45.508;12.252;2023-03-12T05:41:48;101140.53;;;12.78;46.64
38786;BME280;24535;45.508;12.252;2023-03-12T05:44:16;101149.94;;;12.82;47.75
38786;BME280;24535;45.508;12.252;2023-03-12T05:46:45;101147.41;;;12.81;46.17
38786;BME280;24535;45.508;12.252;2023-03-12T05:49:11;101152.16;;;12.76;45.77
38786;BME280;24535;45.508;12.252;2023-03-12T05:51:36;101158.59;;;12.72;45.96
38786;BME280;24535;45.508;12.252;2023-03-12T05:54:05;101159.16;;;12.64;45.42
38786;BME280;24535;45.508;12.252;2023-03-12T05:56:30;101174.25;;;12.62;45.25
38786;BME280;24535;45.508;12.252;2023-03-12T05:58:56;101161.56;;;12.54;45.59
38786;BME280;24535;45.508;12.252;2023-03-12T06:01:24;101175.94;;;12.50;44.85
38786;BME280;24535;45.508;12.252;2023-03-12T06:03:50;101171.50;;;12.51;46.79
38786;BME280;24535;45.508;12.252;2023-03-12T06:06:15;101179.41;;;12.51;46.69
38786;BME280;24535;45.508;12.252;2023-03-12T06:08:42;101184.69;;;12.51;45.84
38786;BME280;24535;45.508;12.252;2023-03-12T06:11:08;101192.75;;;12.49;45.93
38786;BME280;24535;45.508;12.252;2023-03-12T06:13:33;101197.00;;;12.52;45.37
38786;BME280;24535;45.508;12.252;2023-03-12T06:19:02;101199.91;;;12.47;44.84
38786;BME280;24535;45.508;12.252;2023-03-12T06:21:30;101203.63;;;12.45;45.13
38786;BME280;24535;45.508;12.252;2023-03-12T06:23:57;101213.88;;;12.36;45.25
38786;BME280;24535;45.508;12.252;2023-03-12T06:26:26;101218.50;;;12.33;45.49
38786;BME280;24535;45.508;12.252;2023-03-12T06:28:52;101225.66;;;12.31;45.73
38786;BME280;24535;45.508;12.252;2023-03-12T06:31:18;101224.94;;;12.29;45.68
38786;BME280;24535;45.508;12.252;2023-03-12T06:33:44;101231.06;;;12.29;45.36
38786;BME280;24535;45.508;12.252;2023-03-12T06:36:10;101245.66;;;12.35;45.05
38786;BME280;24535;45.508;12.252;2023-03-12T06:38:36;101247.13;;;12.39;46.28
38786;BME280;24535;45.508;12.252;2023-03-12T06:41:12;101254.78;;;12.44;45.39
38786;BME280;24535;45.508;12.252;2023-03-12T06:43:39;101250.13;;;12.47;45.81
38786;BME280;24535;45.508;12.252;2023-03-12T06:46:07;101244.00;;;12.47;44.75
38786;BME280;24535;45.508;12.252;2023-03-12T06:48:34;101251.84;;;12.48;44.39
38786;BME280;24535;45.508;12.252;2023-03-12T06:51:04;101252.69;;;12.49;45.93
38786;BME280;24535;45.508;12.252;2023-03-12T06:53:31;101261.97;;;12.54;45.52
38786;BME280;24535;45.508;12.252;2023-03-12T06:55:56;101273.09;;;12.59;45.80
38786;BME280;24535;45.508;12.252;2023-03-12T06:58:22;101270.25;;;12.62;45.21
38786;BME280;24535;45.508;12.252;2023-03-12T07:00:47;101272.69;;;12.66;46.04
38786;BME280;24535;45.508;12.252;2023-03-12T07:03:13;101272.06;;;12.62;45.37
38786;BME280;24535;45.508;12.252;2023-03-12T07:05:38;101279.88;;;12.63;46.00
38786;BME280;24535;45.508;12.252;2023-03-12T07:08:04;101280.44;;;12.69;46.68
38786;BME280;24535;45.508;12.252;2023-03-12T07:10:41;101285.28;;;12.75;46.34
38786;BME280;24535;45.508;12.252;2023-03-12T07:13:07;101282.97;;;12.83;47.53
38786;BME280;24535;45.508;12.252;2023-03-12T07:15:33;101287.84;;;12.89;47.41
38786;BME280;24535;45.508;12.252;2023-03-12T07:18:03;101289.34;;;12.93;46.51
38786;BME280;24535;45.508;12.252;2023-03-12T07:20:29;101287.53;;;12.94;46.87
38786;BME280;24535;45.508;12.252;2023-03-12T07:22:54;101285.44;;;12.99;47.09
38786;BME280;24535;45.508;12.252;2023-03-12T07:25:20;101290.84;;;13.10;46.06
38786;BME280;24535;45.508;12.252;2023-03-12T07:27:45;101289.91;;;13.24;47.47
38786;BME280;24535;45.508;12.252;2023-03-12T07:30:11;101294.59;;;13.33;46.82
38786;BME280;24535;45.508;12.252;2023-03-12T07:32:36;101302.38;;;13.47;45.90
38786;BME280;24535;45.508;12.252;2023-03-12T07:35:03;101300.22;;;13.65;45.30
38786;BME280;24535;45.508;12.252;2023-03-12T07:37:37;101312.94;;;13.85;44.64
38786;BME280;24535;45.508;12.252;2023-03-12T07:40:06;101303.44;;;14.07;43.99
38786;BME280;24535;45.508;12.252;2023-03-12T07:42:32;101311.16;;;14.34;44.41
38786;BME280;24535;45.508;12.252;2023-03-12T07:47:57;101303.09;;;14.95;42.39
38786;BME280;24535;45.508;12.252;2023-03-12T07:50:22;101315.34;;;15.20;42.68
38786;BME280;24535;45.508;12.252;2023-03-12T07:52:48;101304.13;;;15.39;41.88
38786;BME280;24535;45.508;12.252;2023-03-12T07:55:19;101309.88;;;15.68;41.37
38786;BME280;24535;45.508;12.252;2023-03-12T07:57:45;101307.31;;;15.89;42.08
38786;BME280;24535;45.508;12.252;2023-03-12T08:00:11;101303.66;;;16.01;41.63
38786;BME280;24535;45.508;12.252;2023-03-12T08:02:42;101303.88;;;16.09;39.89
38786;BME280;24535;45.508;12.252;2023-03-12T08:05:26;101318.00;;;16.21;39.81
38786;BME280;24535;45.508;12.252;2023-03-12T08:07:55;101309.28;;;16.19;40.69
38786;BME280;24535;45.508;12.252;2023-03-12T08:10:23;101306.63;;;16.19;40.68
38786;BME280;24535;45.508;12.252;2023-03-12T08:12:49;101316.03;;;16.23;41.01
38786;BME280;24535;45.508;12.252;2023-03-12T08:15:14;101329.69;;;16.29;40.94
38786;BME280;24535;45.508;12.252;2023-03-12T08:17:40;101324.47;;;16.39;40.13
38786;BME280;24535;45.508;12.252;2023-03-12T08:20:06;101325.13;;;16.52;40.57
38786;BME280;24535;45.508;12.252;2023-03-12T08:22:43;101337.66;;;16.73;38.48
38786;BME280;24535;45.508;12.252;2023-03-12T08:25:09;101338.84;;;16.80;39.03
38786;BME280;24535;45.508;12.252;2023-03-12T08:27:45;101331.78;;;16.90;39.50
38786;BME280;24535;45.508;12.252;2023-03-12T08:30:14;101336.84;;;16.93;37.37
38786;BME280;24535;45.508;12.252;2023-03-12T08:32:39;101346.03;;;16.89;37.75
38786;BME280;24535;45.508;12.252;2023-03-12T08:35:05;101353.38;;;16.76;36.87
38786;BME280;24535;45.508;12.252;2023-03-12T08:37:31;101354.16;;;16.55;36.34
38786;BME280;24535;45.508;12.252;2023-03-12T08:39:57;101355.66;;;16.37;36.42
38786;BME280;24535;45.508;12.252;2023-03-12T08:42:22;101361.09;;;16.24;37.31
38786;BME280;24535;45.508;12.252;2023-03-12T08:44:51;101353.78;;;16.17;37.06
38786;BME280;24535;45.508;12.252;2023-03-12T08:47:16;101356.44;;;16.17;37.14
38786;BME280;24535;45.508;12.252;2023-03-12T08:49:41;101364.88;;;16.33;38.33
38786;BME280;24535;45.508;12.252;2023-03-12T08:52:10;101356.81;;;16.55;37.62
38786;BME280;24535;45.508;12.252;2023-03-12T08:54:35;101360.72;;;16.84;37.31
38786;BME280;24535;45.508;12.252;2023-03-12T08:57:01;101350.94;;;17.05;38.20
38786;BME280;24535;45.508;12.252;2023-03-12T08:59:27;101349.13;;;17.26;37.03
38786;BME280;24535;45.508;12.252;2023-03-12T09:01:55;101361.69;;;17.45;36.66
38786;BME280;24535;45.508;12.252;2023-03-12T09:04:21;101363.44;;;17.56;36.70
38786;BME280;24535;45.508;12.252;2023-03-12T09:06:46;101364.91;;;17.70;36.48
38786;BME280;24535;45.508;12.252;2023-03-12T09:09:11;101375.09;;;17.86;37.09
38786;BME280;24535;45.508;12.252;2023-03-12T09:11:37;101368.56;;;17.99;37.44
38786;BME280;24535;45.508;12.252;2023-03-12T09:14:04;101372.00;;;18.21;36.56
38786;BME280;24535;45.508;12.252;2023-03-12T09:16:37;101379.22;;;18.40;35.85
38786;BME280;24535;45.508;12.252;2023-03-12T09:19:03;101384.97;;;18.54;35.94
38786;BME280;24535;45.508;12.252;2023-03-12T09:21:29;101371.78;;;18.63;36.02
38786;BME280;24535;45.508;12.252;2023-03-12T09:23:57;101378.13;;;18.71;35.68
38786;BME280;24535;45.508;12.252;2023-03-12T09:26:28;101372.81;;;18.81;35.62
38786;BME280;24535;45.508;12.252;2023-03-12T09:28:54;101377.44;;;18.98;36.58
38786;BME280;24535;45.508;12.252;2023-03-12T09:31:20;101375.31;;;19.12;36.21
38786;BME280;24535;45.508;12.252;2023-03-12T09:33:46;101386.13;;;19.30;36.21
38786;BME280;24535;45.508;12.252;2023-03-12T09:36:14;101385.53;;;19.45;35.76
38786;BME280;24535;45.508;12.252;2023-03-12T09:38:40;101391.56;;;19.57;35.52
38786;BME280;24535;45.508;12.252;2023-03-12T09:41:17;101389.16;;;19.64;34.44
38786;BME280;24535;45.508;12.252;2023-03-12T09:46:43;101395.22;;;19.66;32.93
38786;BME280;24535;45.508;12.252;2023-03-12T09:49:44;101389.59;;;19.69;32.81
38786;BME280;24535;45.508;12.252;2023-03-12T09:52:47;101384.19;;;19.79;34.02
38786;BME280;24535;45.508;12.252;2023-03-12T09:55:19;101383.84;;;19.91;36.14
38786;BME280;24535;45.508;12.252;2023-03-12T09:57:49;101385.50;;;20.02;35.95
38786;BME280;24535;45.508;12.252;2023-03-12T10:00:21;101388.50;;;20.17;35.99
38786;BME280;24535;45.508;12.252;2023-03-12T10:03:08;101398.34;;;20.26;34.68
38786;BME280;24535;45.508;12.252;2023-03-12T10:14:16;101391.88;;;20.46;33.02
38786;BME280;24535;45.508;12.252;2023-03-12T10:16:58;101394.25;;;20.49;33.42
38786;BME280;24535;45.508;12.252;2023-03-12T10:19:39;101392.59;;;20.48;33.25
38786;BME280;24535;45.508;12.252;2023-03-12T10:27:35;101390.25;;;20.36;33.06
38786;BME280;24535;45.508;12.252;2023-03-12T10:30:02;101389.75;;;20.22;32.69
38786;BME280;24535;45.508;12.252;2023-03-12T10:32:38;101392.78;;;20.10;31.56
38786;BME280;24535;45.508;12.252;2023-03-12T10:35:22;101396.53;;;19.89;31.87
38786;BME280;24535;45.508;12.252;2023-03-12T10:37:57;101395.91;;;19.68;32.46
38786;BME280;24535;45.508;12.252;2023-03-12T10:40:31;101404.22;;;19.55;33.31
38786;BME280;24535;45.508;12.252;2023-03-12T10:42:58;101401.13;;;19.40;33.11
38786;BME280;24535;45.508;12.252;2023-03-12T10:45:33;101397.81;;;19.29;33.68
38786;BME280;24535;45.508;12.252;2023-03-12T10:48:04;101396.13;;;19.18;32.89
38786;BME280;24535;45.508;12.252;2023-03-12T10:50:37;101397.41;;;19.04;33.64
38786;BME280;24535;45.508;12.252;2023-03-12T10:55:56;101396.44;;;18.76;33.37
38786;BME280;24535;45.508;12.252;2023-03-12T10:58:23;101406.34;;;18.64;33.16
38786;BME280;24535;45.508;12.252;2023-03-12T11:00:57;101401.28;;;18.51;32.63
38786;BME280;24535;45.508;12.252;2023-03-12T11:03:24;101396.47;;;18.36;32.67
38786;BME280;24535;45.508;12.252;2023-03-12T11:05:52;101406.41;;;18.24;32.92
38786;BME280;24535;45.508;12.252;2023-03-12T11:08:21;101397.66;;;18.12;33.79
38786;BME280;24535;45.508;12.252;2023-03-12T11:10:52;101398.47;;;18.03;34.31
38786;BME280;24535;45.508;12.252;2023-03-12T11:15:54;101400.25;;;17.93;34.75
38786;BME280;24535;45.508;12.252;2023-03-12T11:18:34;101404.03;;;17.90;35.04
38786;BME280;24535;45.508;12.252;2023-03-12T11:23:42;101401.19;;;17.82;35.25
38786;BME280;24535;45.508;12.252;2023-03-12T11:26:20;101418.41;;;17.78;35.74
38786;BME280;24535;45.508;12.252;2023-03-12T11:28:51;101414.44;;;17.72;34.95
38786;BME280;24535;45.508;12.252;2023-03-12T11:31:32;101413.84;;;17.69;35.18
38786;BME280;24535;45.508;12.252;2023-03-12T11:34:21;101417.75;;;17.65;34.93
38786;BME280;24535;45.508;12.252;2023-03-12T11:37:09;101414.91;;;17.57;35.08
38786;BME280;24535;45.508;12.252;2023-03-12T11:47:30;101424.09;;;17.43;34.63
38786;BME280;24535;45.508;12.252;2023-03-12T11:55:20;101429.22;;;17.35;35.09
38786;BME280;24535;45.508;12.252;2023-03-12T12:00:44;101436.63;;;17.31;35.82
38786;BME280;24535;45.508;12.252;2023-03-12T12:09:07;101429.97;;;17.25;35.99
38786;BME280;24535;45.508;12.252;2023-03-12T12:14:43;101428.69;;;17.20;37.46
38786;BME280;24535;45.508;12.252;2023-03-12T12:17:35;101419.25;;;17.16;38.51
38786;BME280;24535;45.508;12.252;2023-03-12T12:20:23;101420.50;;;17.12;37.96
38786;BME280;24535;45.508;12.252;2023-03-12T12:28:23;101421.25;;;17.02;36.96
38786;BME280;24535;45.508;12.252;2023-03-12T12:31:14;101425.25;;;16.97;37.22
38786;BME280;24535;45.508;12.252;2023-03-12T12:36:15;101442.84;;;16.88;37.33
38786;BME280;24535;45.508;12.252;2023-03-12T12:41:39;101430.16;;;16.80;38.35
38786;BME280;24535;45.508;12.252;2023-03-12T12:44:16;101434.41;;;16.83;37.75
38786;BME280;24535;45.508;12.252;2023-03-12T12:46:49;101427.16;;;16.74;37.85
38786;BME280;24535;45.508;12.252;2023-03-12T12:51:52;101436.59;;;16.67;37.21
38786;BME280;24535;45.508;12.252;2023-03-12T12:54:54;101428.97;;;16.62;37.95
38786;BME280;24535;45.508;12.252;2023-03-12T13:00:35;101434.31;;;16.62;36.88
38786;BME280;24535;45.508;12.252;2023-03-12T13:03:02;101427.53;;;16.58;37.19
38786;BME280;24535;45.508;12.252;2023-03-12T13:05:56;101436.22;;;16.60;37.25
38786;BME280;24535;45.508;12.252;2023-03-12T13:13:48;101434.19;;;16.52;37.68
38786;BME280;24535;45.508;12.252;2023-03-12T13:19:23;101424.66;;;16.50;37.98
38786;BME280;24535;45.508;12.252;2023-03-12T13:27:21;101434.22;;;16.41;37.83
38786;BME280;24535;45.508;12.252;2023-03-12T13:29:48;101430.00;;;16.39;37.24
38786;BME280;24535;45.508;12.252;2023-03-12T13:35:31;101436.75;;;16.31;37.36
38786;BME280;24535;45.508;12.252;2023-03-12T13:37:58;101423.13;;;16.25;37.62
38786;BME280;24535;45.508;12.252;2023-03-12T13:43:09;101435.44;;;16.26;37.20
38786;BME280;24535;45.508;12.252;2023-03-12T13:46:04;101435.56;;;16.24;38.00
38786;BME280;24535;45.508;12.252;2023-03-12T13:48:32;101437.28;;;16.25;38.13
38786;BME280;24535;45.508;12.252;2023-03-12T13:51:10;101446.09;;;16.26;38.72
38786;BME280;24535;45.508;12.252;2023-03-12T13:53:37;101440.53;;;16.29;38.92
38786;BME280;24535;45.508;12.252;2023-03-12T13:56:16;101441.25;;;16.31;38.54
38786;BME280;24535;45.508;12.252;2023-03-12T13:59:03;101450.06;;;16.31;38.74
38786;BME280;24535;45.508;12.252;2023-03-12T14:01:34;101437.00;;;16.28;38.44
38786;BME280;24535;45.508;12.252;2023-03-12T14:04:03;101433.88;;;16.23;39.01
38786;BME280;24535;45.508;12.252;2023-03-12T14:06:36;101438.09;;;16.26;39.48
38786;BME280;24535;45.508;12.252;2023-03-12T14:09:19;101453.22;;;16.25;38.88
38786;BME280;24535;45.508;12.252;2023-03-12T14:17:41;101445.25;;;16.14;38.89
38786;BME280;24535;45.508;12.252;2023-03-12T14:20:15;101444.25;;;16.15;39.10
38786;BME280;24535;45.508;12.252;2023-03-12T14:22:45;101462.88;;;16.15;38.92
38786;BME280;24535;45.508;12.252;2023-03-12T14:27:44;101464.81;;;16.13;38.70
38786;BME280;24535;45.508;12.252;2023-03-12T14:30:22;101459.50;;;16.13;38.81
38786;BME280;24535;45.508;12.252;2023-03-12T14:32:52;101466.13;;;16.19;39.02
38786;BME280;24535;45.508;12.252;2023-03-12T14:35:20;101461.56;;;16.21;39.41
38786;BME280;24535;45.508;12.252;2023-03-12T14:37:55;101455.38;;;16.20;38.95
38786;BME280;24535;45.508;12.252;2023-03-12T14:40:39;101457.47;;;16.17;39.48
38786;BME280;24535;45.508;12.252;2023-03-12T14:43:30;101457.47;;;16.17;40.01
38786;BME280;24535;45.508;12.252;2023-03-12T14:45:58;101446.09;;;16.15;40.06
38786;BME280;24535;45.508;12.252;2023-03-12T14:48:32;101452.84;;;16.19;39.79